メインページ
METAR-TAF:

METAR-TAF

空港 :

ヒューストン, テキサス州, アメリカ合衆国

ジョージ・ブッシュ・インターコンチネンタル空港

緯度: 29-59-33N, 経度: 095-21-50W, 海抜: 29m

現時点の気象観測

当レポートは27分前の22:53(UTC)に作成
南/南東の風 14kt、最大18ktの突風を伴う
気温 33°C
湿度 53%
気圧 1012 hPa
視程: 16.1km
高度4000ftの雲はほとんどない
高度12000ftの雲はほとんどない
高度25000ftの千切れ雲あり

METAR: KIAH 272253Z 16014G18KT 10SM FEW040 FEW120 BKN250 33/22 A2987 RMK AO2 SLP112 T03280217

時間: 18:20 (23:20 UTC)

予報

当レポートは2時間28分前の20:52(UTC)に作成
予報は27日の 21時(UTC)から 28日の 24時(UTC)まで有効
の風 12kt、最大20ktの突風を伴う
視程: 10km
高度4000ftの雲はほとんどない
高度5000ftの雲はほとんどない
28日の 0300時(UTC)から
の風 10kt
視程: 10km
高度1500ftの千切れ雲あり
高度3000ftの曇り
28日の 0700時(UTC)から
の風 5kt
視程: 10km
高度1400ftの曇り
28日の 1500時(UTC)から
の風 9kt
視程: 10km
高度2500ftの千切れ雲あり
高度25000ftの曇り
近辺でにわか雨
28日の 1900時(UTC)から
の風 12kt
視程: 10km
高度4500ftの雲は散在している

TAF: KIAH 272052Z 2721/2824 18012G20KT P6SM FEW040 FEW050 FM280300 17010KT P6SM BKN015 OVC030 FM280700 18005KT P6SM OVC014 FM281500 18009KT P6SM VCSH BKN025 OVC250 FM281900 17012KT P6SM SCT045

4,000以上の空港の気象観測と天気予報(METAR報とTAF報)

利用可能な観測所は地図上に黄色い丸と赤い丸で示す。

丸の上にカーソルを重ねると観測所名を参照できる。

次にクリックすると気象観測と天気予報を参照できる。

マップの切り替え:黒色「×」印の緑ボタンをクリックして拡大、「-」印の緑ボタンをクリックして縮小、緑色の三角印をクリックして隣りの地図に切り替え


METAR-TAF: